sensor_id;sensor_type;location;lat;lon;timestamp;P1;durP1;ratioP1;P2;durP2;ratioP2
50651;SDS011;66928;52.086;5.240;2023-04-24T05:11:33;6.5;;;5.8;;
50651;SDS011;66928;52.086;5.240;2023-04-24T05:13:09;6.3;;;5.7;;
50651;SDS011;66928;52.086;5.240;2023-04-24T05:16:21;6.3;;;5.7;;
50651;SDS011;66928;52.086;5.240;2023-04-24T05:17:57;6.6;;;6.0;;
50651;SDS011;66928;52.086;5.240;2023-04-24T05:19:34;6.8;;;6.1;;
50651;SDS011;66928;52.086;5.240;2023-04-24T05:22:47;6.4;;;5.8;;
50651;SDS011;66928;52.086;5.240;2023-04-24T05:24:23;6.3;;;5.6;;
50651;SDS011;66928;52.086;5.240;2023-04-24T05:25:59;5.8;;;5.3;;
50651;SDS011;66928;52.086;5.240;2023-04-24T05:27:35;5.8;;;5.2;;
50651;SDS011;66928;52.086;5.240;2023-04-24T05:32:24;5.2;;;4.7;;
50651;SDS011;66928;52.086;5.240;2023-04-24T05:34:00;5.7;;;5.0;;
50651;SDS011;66928;52.086;5.240;2023-04-24T05:37:13;6.4;;;5.11;;
50651;SDS011;66928;52.086;5.240;2023-04-24T05:38:49;5.6;;;4.8;;
50651;SDS011;66928;52.086;5.240;2023-04-24T05:43:38;2.6;;;2.4;;
50651;SDS011;66928;52.086;5.240;2023-04-24T05:45:15;3.1;;;2.5;;
50651;SDS011;66928;52.086;5.240;2023-04-24T05:46:51;3.7;;;2.4;;
50651;SDS011;66928;52.086;5.240;2023-04-24T05:50:04;2.7;;;2.0;;
50651;SDS011;66928;52.086;5.240;2023-04-24T05:51:41;1.6;;;1.5;;
50651;SDS011;66928;52.086;5.240;2023-04-24T05:53:17;2.21;;;2.0;;
50651;SDS011;66928;52.086;5.240;2023-04-24T05:54:53;2.4;;;1.7;;
50651;SDS011;66928;52.086;5.240;2023-04-24T05:58:06;2.7;;;1.4;;
50651;SDS011;66928;52.086;5.240;2023-04-24T05:59:42;1.7;;;1.3;;
50651;SDS011;66928;52.086;5.240;2023-04-24T06:01:19;1.6;;;1.5;;
50651;SDS011;66928;52.086;5.240;2023-04-24T06:04:31;2.0;;;1.6;;
50651;SDS011;66928;52.086;5.240;2023-04-24T06:06:08;1.8;;;1.5;;
50651;SDS011;66928;52.086;5.240;2023-04-24T06:07:44;1.7;;;1.6;;
50651;SDS011;66928;52.086;5.240;2023-04-24T06:10:56;2.0;;;1.6;;
50651;SDS011;66928;52.086;5.240;2023-04-24T06:12:32;1.7;;;1.6;;
50651;SDS011;66928;52.086;5.240;2023-04-24T06:14:09;3.1;;;1.5;;
50651;SDS011;66928;52.086;5.240;2023-04-24T06:15:45;2.1;;;1.6;;
50651;SDS011;66928;52.086;5.240;2023-04-24T06:18:57;1.9;;;1.5;;
50651;SDS011;66928;52.086;5.240;2023-04-24T06:20:33;2.9;;;1.6;;
50651;SDS011;66928;52.086;5.240;2023-04-24T06:22:09;1.7;;;1.5;;
50651;SDS011;66928;52.086;5.240;2023-04-24T06:25:21;1.3;;;1.2;;
50651;SDS011;66928;52.086;5.240;2023-04-24T06:27:01;1.7;;;1.6;;
50651;SDS011;66928;52.086;5.240;2023-04-24T06:28:37;2.31;;;1.8;;
50651;SDS011;66928;52.086;5.240;2023-04-24T06:31:50;5.6;;;3.3;;
50651;SDS011;66928;52.086;5.240;2023-04-24T06:33:26;5.5;;;4.61;;
50651;SDS011;66928;52.086;5.240;2023-04-24T06:35:02;6.2;;;5.2;;
50651;SDS011;66928;52.086;5.240;2023-04-24T06:36:39;7.7;;;6.2;;
50651;SDS011;66928;52.086;5.240;2023-04-24T06:39:52;9.1;;;7.2;;
50651;SDS011;66928;52.086;5.240;2023-04-24T06:41:28;9.4;;;7.7;;
50651;SDS011;66928;52.086;5.240;2023-04-24T06:43:04;9.1;;;8.1;;
50651;SDS011;66928;52.086;5.240;2023-04-24T06:46:16;9.6;;;8.5;;
50651;SDS011;66928;52.086;5.240;2023-04-24T06:47:52;13.2;;;9.4;;
50651;SDS011;66928;52.086;5.240;2023-04-24T06:49:28;11.7;;;9.4;;
50651;SDS011;66928;52.086;5.240;2023-04-24T06:52:41;14.4;;;11.1;;
50651;SDS011;66928;52.086;5.240;2023-04-24T06:54:17;14.3;;;10.8;;
50651;SDS011;66928;52.086;5.240;2023-04-24T06:55:53;15.5;;;11.3;;
50651;SDS011;66928;52.086;5.240;2023-04-24T06:59:06;14.7;;;11.2;;
50651;SDS011;66928;52.086;5.240;2023-04-24T07:00:42;14.5;;;11.4;;
50651;SDS011;66928;52.086;5.240;2023-04-24T07:02:18;14.4;;;10.9;;
50651;SDS011;66928;52.086;5.240;2023-04-24T07:03:55;14.0;;;10.6;;
50651;SDS011;66928;52.086;5.240;2023-04-24T07:07:07;16.7;;;11.0;;
50651;SDS011;66928;52.086;5.240;2023-04-24T07:08:43;15.6;;;9.9;;
50651;SDS011;66928;52.086;5.240;2023-04-24T07:10:19;15.2;;;9.9;;
50651;SDS011;66928;52.086;5.240;2023-04-24T07:13:31;14.1;;;9.81;;
50651;SDS011;66928;52.086;5.240;2023-04-24T07:15:08;14.2;;;9.71;;
50651;SDS011;66928;52.086;5.240;2023-04-24T07:16:45;15.6;;;10.4;;
50651;SDS011;66928;52.086;5.240;2023-04-24T07:19:58;15.8;;;9.9;;
50651;SDS011;66928;52.086;5.240;2023-04-24T07:21:34;17.11;;;10.7;;
50651;SDS011;66928;52.086;5.240;2023-04-24T07:23:10;18.8;;;10.5;;
50651;SDS011;66928;52.086;5.240;2023-04-24T07:24:46;16.8;;;10.3;;
50651;SDS011;66928;52.086;5.240;2023-04-24T07:28:00;16.8;;;10.7;;
50651;SDS011;66928;52.086;5.240;2023-04-24T07:29:36;15.5;;;10.6;;
50651;SDS011;66928;52.086;5.240;2023-04-24T07:31:12;16.5;;;10.5;;
50651;SDS011;66928;52.086;5.240;2023-04-24T07:34:25;16.2;;;9.6;;
50651;SDS011;66928;52.086;5.240;2023-04-24T07:36:01;16.61;;;10.5;;
50651;SDS011;66928;52.086;5.240;2023-04-24T07:37:37;15.0;;;10.21;;
50651;SDS011;66928;52.086;5.240;2023-04-24T07:40:51;17.11;;;10.0;;
50651;SDS011;66928;52.086;5.240;2023-04-24T07:42:28;16.3;;;10.0;;
50651;SDS011;66928;52.086;5.240;2023-04-24T07:44:04;16.0;;;10.0;;
50651;SDS011;66928;52.086;5.240;2023-04-24T07:45:40;16.4;;;9.21;;
50651;SDS011;66928;52.086;5.240;2023-04-24T07:48:52;15.7;;;9.1;;
50651;SDS011;66928;52.086;5.240;2023-04-24T07:50:29;18.3;;;8.4;;
50651;SDS011;66928;52.086;5.240;2023-04-24T07:52:05;19.2;;;8.31;;
50651;SDS011;66928;52.086;5.240;2023-04-24T07:55:19;15.0;;;8.1;;
50651;SDS011;66928;52.086;5.240;2023-04-24T07:56:56;20.0;;;8.4;;
50651;SDS011;66928;52.086;5.240;2023-04-24T07:58:32;17.8;;;7.6;;
50651;SDS011;66928;52.086;5.240;2023-04-24T08:01:45;19.0;;;7.9;;
50651;SDS011;66928;52.086;5.240;2023-04-24T08:03:21;15.5;;;7.2;;
50651;SDS011;66928;52.086;5.240;2023-04-24T08:04:57;19.41;;;7.3;;
50651;SDS011;66928;52.086;5.240;2023-04-24T08:06:34;20.0;;;7.4;;
50651;SDS011;66928;52.086;5.240;2023-04-24T08:09:46;19.5;;;7.1;;
50651;SDS011;66928;52.086;5.240;2023-04-24T08:11:22;17.3;;;6.7;;
50651;SDS011;66928;52.086;5.240;2023-04-24T08:12:59;19.61;;;6.2;;
50651;SDS011;66928;52.086;5.240;2023-04-24T08:16:11;19.41;;;6.3;;
50651;SDS011;66928;52.086;5.240;2023-04-24T08:17:47;19.11;;;6.3;;
50651;SDS011;66928;52.086;5.240;2023-04-24T08:19:24;16.8;;;5.8;;
50651;SDS011;66928;52.086;5.240;2023-04-24T08:22:36;15.4;;;5.5;;
50651;SDS011;66928;52.086;5.240;2023-04-24T08:24:12;21.9;;;6.1;;
50651;SDS011;66928;52.086;5.240;2023-04-24T08:25:48;18.0;;;5.3;;
50651;SDS011;66928;52.086;5.240;2023-04-24T08:29:01;15.6;;;5.0;;
50651;SDS011;66928;52.086;5.240;2023-04-24T08:30:37;18.3;;;5.3;;
50651;SDS011;66928;52.086;5.240;2023-04-24T08:32:15;15.4;;;4.8;;
50651;SDS011;66928;52.086;5.240;2023-04-24T08:33:51;17.41;;;5.7;;
50651;SDS011;66928;52.086;5.240;2023-04-24T08:37:03;13.8;;;4.91;;
50651;SDS011;66928;52.086;5.240;2023-04-24T08:38:39;13.5;;;4.5;;
50651;SDS011;66928;52.086;5.240;2023-04-24T08:40:16;13.1;;;3.9;;
50651;SDS011;66928;52.086;5.240;2023-04-24T08:43:29;14.5;;;4.2;;
50651;SDS011;66928;52.086;5.240;2023-04-24T08:45:09;11.6;;;3.9;;
50651;SDS011;66928;52.086;5.240;2023-04-24T08:46:47;13.6;;;4.0;;
50651;SDS011;66928;52.086;5.240;2023-04-24T08:48:24;11.7;;;3.8;;
50651;SDS011;66928;52.086;5.240;2023-04-24T08:51:39;9.9;;;3.8;;
50651;SDS011;66928;52.086;5.240;2023-04-24T08:53:15;11.8;;;3.5;;
50651;SDS011;66928;52.086;5.240;2023-04-24T08:54:53;11.9;;;3.6;;
50651;SDS011;66928;52.086;5.240;2023-04-24T08:58:10;11.7;;;3.7;;
50651;SDS011;66928;52.086;5.240;2023-04-24T08:59:46;9.81;;;3.8;;
50651;SDS011;66928;52.086;5.240;2023-04-24T09:01:22;12.0;;;3.6;;
50651;SDS011;66928;52.086;5.240;2023-04-24T09:04:40;11.9;;;3.6;;
50651;SDS011;66928;52.086;5.240;2023-04-24T09:06:18;11.4;;;3.8;;
50651;SDS011;66928;52.086;5.240;2023-04-24T09:07:57;11.1;;;3.7;;
50651;SDS011;66928;52.086;5.240;2023-04-24T09:09:38;12.2;;;4.1;;
50651;SDS011;66928;52.086;5.240;2023-04-24T09:12:52;12.7;;;3.8;;
50651;SDS011;66928;52.086;5.240;2023-04-24T09:14:29;11.9;;;3.8;;
50651;SDS011;66928;52.086;5.240;2023-04-24T09:16:06;11.9;;;3.8;;
50651;SDS011;66928;52.086;5.240;2023-04-24T09:17:43;12.8;;;3.9;;
50651;SDS011;66928;52.086;5.240;2023-04-24T09:20:57;12.0;;;4.0;;
50651;SDS011;66928;52.086;5.240;2023-04-24T09:22:34;13.6;;;4.1;;
50651;SDS011;66928;52.086;5.240;2023-04-24T09:24:14;13.1;;;4.0;;
50651;SDS011;66928;52.086;5.240;2023-04-24T09:27:31;13.5;;;4.41;;
50651;SDS011;66928;52.086;5.240;2023-04-24T09:29:13;13.1;;;3.9;;
50651;SDS011;66928;52.086;5.240;2023-04-24T09:30:55;11.5;;;3.8;;
50651;SDS011;66928;52.086;5.240;2023-04-24T09:32:38;10.5;;;3.6;;
50651;SDS011;66928;52.086;5.240;2023-04-24T09:35:58;12.4;;;3.6;;
50651;SDS011;66928;52.086;5.240;2023-04-24T09:37:35;10.7;;;3.6;;
50651;SDS011;66928;52.086;5.240;2023-04-24T09:39:13;11.1;;;3.5;;
50651;SDS011;66928;52.086;5.240;2023-04-24T09:40:51;9.4;;;3.4;;
50651;SDS011;66928;52.086;5.240;2023-04-24T09:44:10;8.5;;;3.2;;
50651;SDS011;66928;52.086;5.240;2023-04-24T09:45:48;9.0;;;3.2;;
50651;SDS011;66928;52.086;5.240;2023-04-24T09:47:25;7.8;;;3.0;;
50651;SDS011;66928;52.086;5.240;2023-04-24T09:50:45;8.2;;;3.0;;
50651;SDS011;66928;52.086;5.240;2023-04-24T09:52:22;8.4;;;3.2;;
50651;SDS011;66928;52.086;5.240;2023-04-24T09:53:58;8.0;;;3.1;;
50651;SDS011;66928;52.086;5.240;2023-04-24T09:55:38;9.6;;;3.2;;
50651;SDS011;66928;52.086;5.240;2023-04-24T09:58:51;9.9;;;3.0;;
50651;SDS011;66928;52.086;5.240;2023-04-24T10:00:28;5.9;;;2.9;;
50651;SDS011;66928;52.086;5.240;2023-04-24T10:02:15;6.4;;;2.7;;
50651;SDS011;66928;52.086;5.240;2023-04-24T10:03:53;6.6;;;2.6;;
50651;SDS011;66928;52.086;5.240;2023-04-24T10:07:07;6.8;;;2.8;;
50651;SDS011;66928;52.086;5.240;2023-04-24T10:08:43;11.1;;;3.0;;
50651;SDS011;66928;52.086;5.240;2023-04-24T10:10:20;6.4;;;2.7;;
50651;SDS011;66928;52.086;5.240;2023-04-24T10:13:35;9.31;;;2.6;;
50651;SDS011;66928;52.086;5.240;2023-04-24T10:15:11;7.1;;;2.9;;
50651;SDS011;66928;52.086;5.240;2023-04-24T10:16:49;8.9;;;2.6;;
50651;SDS011;66928;52.086;5.240;2023-04-24T10:18:28;6.5;;;2.8;;
50651;SDS011;66928;52.086;5.240;2023-04-24T10:21:43;8.81;;;2.8;;
50651;SDS011;66928;52.086;5.240;2023-04-24T10:23:20;6.7;;;2.5;;
50651;SDS011;66928;52.086;5.240;2023-04-24T10:24:58;7.5;;;2.7;;
50651;SDS011;66928;52.086;5.240;2023-04-24T10:28:11;4.7;;;2.21;;
50651;SDS011;66928;52.086;5.240;2023-04-24T10:29:48;5.11;;;2.1;;
50651;SDS011;66928;52.086;5.240;2023-04-24T10:31:30;4.7;;;1.8;;
50651;SDS011;66928;52.086;5.240;2023-04-24T10:33:07;5.6;;;1.8;;
50651;SDS011;66928;52.086;5.240;2023-04-24T10:36:21;3.8;;;1.6;;
50651;SDS011;66928;52.086;5.240;2023-04-24T10:38:01;4.5;;;1.7;;
50651;SDS011;66928;52.086;5.240;2023-04-24T10:39:41;7.0;;;1.8;;
50651;SDS011;66928;52.086;5.240;2023-04-24T10:42:54;4.3;;;1.7;;
50651;SDS011;66928;52.086;5.240;2023-04-24T10:44:35;4.5;;;1.9;;
50651;SDS011;66928;52.086;5.240;2023-04-24T10:46:16;3.2;;;1.6;;
50651;SDS011;66928;52.086;5.240;2023-04-24T10:47:57;4.7;;;1.6;;
50651;SDS011;66928;52.086;5.240;2023-04-24T10:51:12;5.2;;;1.8;;
50651;SDS011;66928;52.086;5.240;2023-04-24T10:52:48;4.61;;;1.8;;
50651;SDS011;66928;52.086;5.240;2023-04-24T10:54:25;4.0;;;1.7;;
50651;SDS011;66928;52.086;5.240;2023-04-24T10:56:04;4.61;;;1.6;;
50651;SDS011;66928;52.086;5.240;2023-04-24T10:59:38;2.9;;;1.5;;
50651;SDS011;66928;52.086;5.240;2023-04-24T11:01:30;3.9;;;1.7;;
50651;SDS011;66928;52.086;5.240;2023-04-24T11:03:12;3.9;;;1.6;;
50651;SDS011;66928;52.086;5.240;2023-04-24T11:05:02;5.11;;;1.7;;
50651;SDS011;66928;52.086;5.240;2023-04-24T11:06:39;4.61;;;1.8;;
50651;SDS011;66928;52.086;5.240;2023-04-24T11:10:00;4.3;;;1.6;;
50651;SDS011;66928;52.086;5.240;2023-04-24T11:11:37;5.5;;;1.6;;
50651;SDS011;66928;52.086;5.240;2023-04-24T11:13:15;6.3;;;2.21;;
50651;SDS011;66928;52.086;5.240;2023-04-24T11:15:00;3.9;;;1.6;;
50651;SDS011;66928;52.086;5.240;2023-04-24T11:18:36;5.0;;;1.8;;
50651;SDS011;66928;52.086;5.240;2023-04-24T11:20:16;4.3;;;1.9;;
50651;SDS011;66928;52.086;5.240;2023-04-24T11:21:55;4.8;;;1.9;;
50651;SDS011;66928;52.086;5.240;2023-04-24T11:23:35;5.0;;;2.1;;
50651;SDS011;66928;52.086;5.240;2023-04-24T11:26:47;5.6;;;2.0;;
50651;SDS011;66928;52.086;5.240;2023-04-24T11:28:23;6.7;;;2.0;;
50651;SDS011;66928;52.086;5.240;2023-04-24T11:30:00;7.7;;;2.4;;
50651;SDS011;66928;52.086;5.240;2023-04-24T11:31:38;6.5;;;2.4;;
50651;SDS011;66928;52.086;5.240;2023-04-24T11:34:57;6.0;;;1.9;;
50651;SDS011;66928;52.086;5.240;2023-04-24T11:36:35;6.3;;;2.31;;
50651;SDS011;66928;52.086;5.240;2023-04-24T11:38:11;6.2;;;1.9;;
50651;SDS011;66928;52.086;5.240;2023-04-24T11:41:29;4.5;;;1.9;;
50651;SDS011;66928;52.086;5.240;2023-04-24T11:43:05;3.5;;;1.4;;
50651;SDS011;66928;52.086;5.240;2023-04-24T11:44:42;4.0;;;1.3;;
50651;SDS011;66928;52.086;5.240;2023-04-24T11:46:20;3.4;;;1.4;;
50651;SDS011;66928;52.086;5.240;2023-04-24T11:49:33;2.9;;;1.4;;
50651;SDS011;66928;52.086;5.240;2023-04-24T11:51:12;3.1;;;1.11;;
50651;SDS011;66928;52.086;5.240;2023-04-24T11:52:49;2.1;;;1.4;;
50651;SDS011;66928;52.086;5.240;2023-04-24T11:56:02;3.6;;;1.6;;
50651;SDS011;66928;52.086;5.240;2023-04-24T11:57:39;3.7;;;1.4;;
50651;SDS011;66928;52.086;5.240;2023-04-24T11:59:17;3.7;;;1.5;;
50651;SDS011;66928;52.086;5.240;2023-04-24T12:00:55;4.2;;;1.5;;
50651;SDS011;66928;52.086;5.240;2023-04-24T12:04:08;4.5;;;1.6;;
50651;SDS011;66928;52.086;5.240;2023-04-24T12:05:44;5.8;;;1.8;;
50651;SDS011;66928;52.086;5.240;2023-04-24T12:07:21;4.3;;;1.9;;
50651;SDS011;66928;52.086;5.240;2023-04-24T12:10:35;6.4;;;1.8;;
50651;SDS011;66928;52.086;5.240;2023-04-24T12:12:12;4.61;;;1.9;;
50651;SDS011;66928;52.086;5.240;2023-04-24T12:13:48;5.8;;;2.0;;
50651;SDS011;66928;52.086;5.240;2023-04-24T12:17:01;5.7;;;1.9;;
50651;SDS011;66928;52.086;5.240;2023-04-24T12:18:42;6.0;;;1.9;;
50651;SDS011;66928;52.086;5.240;2023-04-24T12:20:23;5.4;;;2.4;;
50651;SDS011;66928;52.086;5.240;2023-04-24T12:22:01;7.5;;;3.9;;
50651;SDS011;66928;52.086;5.240;2023-04-24T12:25:18;6.0;;;2.5;;
50651;SDS011;66928;52.086;5.240;2023-04-24T12:26:56;6.2;;;1.9;;
50651;SDS011;66928;52.086;5.240;2023-04-24T12:28:36;5.6;;;2.21;;
50651;SDS011;66928;52.086;5.240;2023-04-24T12:30:14;5.9;;;2.0;;
50651;SDS011;66928;52.086;5.240;2023-04-24T12:33:27;5.5;;;2.21;;
50651;SDS011;66928;52.086;5.240;2023-04-24T12:35:09;7.8;;;2.5;;
50651;SDS011;66928;52.086;5.240;2023-04-24T12:36:45;5.5;;;2.4;;
50651;SDS011;66928;52.086;5.240;2023-04-24T12:40:02;6.4;;;2.5;;
50651;SDS011;66928;52.086;5.240;2023-04-24T12:41:49;8.5;;;2.31;;
50651;SDS011;66928;52.086;5.240;2023-04-24T12:43:27;9.1;;;2.5;;
50651;SDS011;66928;52.086;5.240;2023-04-24T12:45:04;10.0;;;2.9;;
50651;SDS011;66928;52.086;5.240;2023-04-24T12:48:18;6.5;;;2.31;;
50651;SDS011;66928;52.086;5.240;2023-04-24T12:49:54;8.71;;;2.9;;
50651;SDS011;66928;52.086;5.240;2023-04-24T12:51:30;9.1;;;2.6;;
50651;SDS011;66928;52.086;5.240;2023-04-24T12:54:44;9.4;;;3.0;;
50651;SDS011;66928;52.086;5.240;2023-04-24T12:56:21;10.4;;;2.8;;
50651;SDS011;66928;52.086;5.240;2023-04-24T12:57:57;10.3;;;3.0;;
50651;SDS011;66928;52.086;5.240;2023-04-24T12:59:33;8.0;;;2.7;;
50651;SDS011;66928;52.086;5.240;2023-04-24T13:02:45;6.9;;;2.8;;
50651;SDS011;66928;52.086;5.240;2023-04-24T13:04:21;11.4;;;3.0;;
50651;SDS011;66928;52.086;5.240;2023-04-24T13:05:57;8.9;;;3.2;;
50651;SDS011;66928;52.086;5.240;2023-04-24T13:09:10;8.9;;;3.1;;
50651;SDS011;66928;52.086;5.240;2023-04-24T13:10:47;8.81;;;3.0;;
50651;SDS011;66928;52.086;5.240;2023-04-24T13:12:23;8.4;;;2.9;;
50651;SDS011;66928;52.086;5.240;2023-04-24T13:15:35;10.4;;;3.2;;
50651;SDS011;66928;52.086;5.240;2023-04-24T13:17:11;9.9;;;3.3;;
50651;SDS011;66928;52.086;5.240;2023-04-24T13:18:48;12.1;;;3.3;;
50651;SDS011;66928;52.086;5.240;2023-04-24T13:20:25;13.6;;;4.0;;
50651;SDS011;66928;52.086;5.240;2023-04-24T13:23:38;9.31;;;3.5;;
50651;SDS011;66928;52.086;5.240;2023-04-24T13:25:14;10.8;;;3.8;;
50651;SDS011;66928;52.086;5.240;2023-04-24T13:26:50;11.8;;;3.8;;
50651;SDS011;66928;52.086;5.240;2023-04-24T13:30:03;11.4;;;3.4;;
50651;SDS011;66928;52.086;5.240;2023-04-24T13:31:39;12.0;;;3.7;;
50651;SDS011;66928;52.086;5.240;2023-04-24T13:33:16;11.9;;;3.5;;
50651;SDS011;66928;52.086;5.240;2023-04-24T13:36:28;12.9;;;3.9;;
50651;SDS011;66928;52.086;5.240;2023-04-24T13:38:04;10.0;;;3.5;;
50651;SDS011;66928;52.086;5.240;2023-04-24T13:39:40;11.9;;;3.7;;
50651;SDS011;66928;52.086;5.240;2023-04-24T13:41:16;11.2;;;4.1;;
50651;SDS011;66928;52.086;5.240;2023-04-24T13:44:29;12.5;;;4.1;;
50651;SDS011;66928;52.086;5.240;2023-04-24T13:46:05;7.6;;;3.3;;
50651;SDS011;66928;52.086;5.240;2023-04-24T13:47:41;12.1;;;3.7;;
50651;SDS011;66928;52.086;5.240;2023-04-24T13:50:54;10.4;;;4.0;;
50651;SDS011;66928;52.086;5.240;2023-04-24T13:52:30;11.9;;;3.7;;
50651;SDS011;66928;52.086;5.240;2023-04-24T13:54:06;10.6;;;3.8;;
50651;SDS011;66928;52.086;5.240;2023-04-24T13:57:19;10.0;;;3.9;;
50651;SDS011;66928;52.086;5.240;2023-04-24T13:58:56;9.81;;;3.6;;
50651;SDS011;66928;52.086;5.240;2023-04-24T14:00:33;7.1;;;3.2;;
50651;SDS011;66928;52.086;5.240;2023-04-24T14:03:45;10.7;;;3.7;;
50651;SDS011;66928;52.086;5.240;2023-04-24T14:05:21;10.4;;;3.5;;
50651;SDS011;66928;52.086;5.240;2023-04-24T14:06:57;9.71;;;3.6;;
50651;SDS011;66928;52.086;5.240;2023-04-24T14:08:33;10.21;;;3.8;;
50651;SDS011;66928;52.086;5.240;2023-04-24T14:11:45;8.71;;;3.5;;
50651;SDS011;66928;52.086;5.240;2023-04-24T14:13:22;12.0;;;4.2;;
50651;SDS011;66928;52.086;5.240;2023-04-24T14:14:59;13.7;;;4.0;;
50651;SDS011;66928;52.086;5.240;2023-04-24T14:18:11;10.1;;;3.7;;
50651;SDS011;66928;52.086;5.240;2023-04-24T14:19:47;10.6;;;4.1;;
50651;SDS011;66928;52.086;5.240;2023-04-24T14:21:23;10.4;;;3.9;;
50651;SDS011;66928;52.086;5.240;2023-04-24T14:24:35;10.9;;;3.8;;
50651;SDS011;66928;52.086;5.240;2023-04-24T14:26:12;9.71;;;4.61;;
50651;SDS011;66928;52.086;5.240;2023-04-24T14:27:48;9.71;;;4.61;;
50651;SDS011;66928;52.086;5.240;2023-04-24T14:29:25;9.9;;;3.9;;
50651;SDS011;66928;52.086;5.240;2023-04-24T14:32:37;8.9;;;3.9;;
50651;SDS011;66928;52.086;5.240;2023-04-24T14:34:14;9.4;;;3.7;;
50651;SDS011;66928;52.086;5.240;2023-04-24T14:35:50;8.1;;;3.6;;
50651;SDS011;66928;52.086;5.240;2023-04-24T14:39:03;9.0;;;3.5;;
50651;SDS011;66928;52.086;5.240;2023-04-24T14:40:39;8.1;;;3.4;;
50651;SDS011;66928;52.086;5.240;2023-04-24T14:42:16;9.5;;;3.9;;
50651;SDS011;66928;52.086;5.240;2023-04-24T14:45:27;6.8;;;3.3;;
50651;SDS011;66928;52.086;5.240;2023-04-24T14:47:03;7.6;;;3.4;;
50651;SDS011;66928;52.086;5.240;2023-04-24T14:48:40;10.7;;;3.8;;
50651;SDS011;66928;52.086;5.240;2023-04-24T14:51:52;10.7;;;3.7;;
50651;SDS011;66928;52.086;5.240;2023-04-24T14:53:28;11.2;;;4.1;;
50651;SDS011;66928;52.086;5.240;2023-04-24T14:55:04;10.3;;;4.0;;
50651;SDS011;66928;52.086;5.240;2023-04-24T14:56:41;10.5;;;3.9;;
50651;SDS011;66928;52.086;5.240;2023-04-24T14:59:53;11.5;;;4.3;;
50651;SDS011;66928;52.086;5.240;2023-04-24T15:01:30;12.0;;;4.3;;
50651;SDS011;66928;52.086;5.240;2023-04-24T15:03:06;10.1;;;4.3;;
50651;SDS011;66928;52.086;5.240;2023-04-24T15:06:18;8.71;;;3.8;;
50651;SDS011;66928;52.086;5.240;2023-04-24T15:07:55;10.3;;;3.9;;
50651;SDS011;66928;52.086;5.240;2023-04-24T15:09:31;9.1;;;4.1;;
50651;SDS011;66928;52.086;5.240;2023-04-24T15:12:44;9.21;;;3.9;;
50651;SDS011;66928;52.086;5.240;2023-04-24T15:14:21;8.5;;;3.9;;
50651;SDS011;66928;52.086;5.240;2023-04-24T15:15:57;10.6;;;4.0;;
50651;SDS011;66928;52.086;5.240;2023-04-24T15:17:33;11.2;;;4.61;;
50651;SDS011;66928;52.086;5.240;2023-04-24T15:20:46;11.5;;;4.5;;
50651;SDS011;66928;52.086;5.240;2023-04-24T15:22:22;14.2;;;4.8;;
50651;SDS011;66928;52.086;5.240;2023-04-24T15:23:58;10.5;;;4.3;;
50651;SDS011;66928;52.086;5.240;2023-04-24T15:27:12;12.0;;;4.91;;
50651;SDS011;66928;52.086;5.240;2023-04-24T15:28:48;13.8;;;4.91;;
50651;SDS011;66928;52.086;5.240;2023-04-24T15:30:25;12.5;;;5.0;;
50651;SDS011;66928;52.086;5.240;2023-04-24T15:33:38;15.2;;;4.7;;
50651;SDS011;66928;52.086;5.240;2023-04-24T15:35:14;16.11;;;5.4;;
50651;SDS011;66928;52.086;5.240;2023-04-24T15:36:50;14.1;;;4.8;;
50651;SDS011;66928;52.086;5.240;2023-04-24T15:38:27;12.9;;;4.7;;
50651;SDS011;66928;52.086;5.240;2023-04-24T15:41:40;13.0;;;4.61;;
50651;SDS011;66928;52.086;5.240;2023-04-24T15:43:16;11.3;;;4.61;;
50651;SDS011;66928;52.086;5.240;2023-04-24T15:44:52;9.71;;;4.1;;
50651;SDS011;66928;52.086;5.240;2023-04-24T15:48:06;13.3;;;4.61;;
50651;SDS011;66928;52.086;5.240;2023-04-24T15:49:41;8.81;;;3.7;;
50651;SDS011;66928;52.086;5.240;2023-04-24T15:51:18;12.8;;;5.9;;
50651;SDS011;66928;52.086;5.240;2023-04-24T15:54:30;9.21;;;4.2;;
50651;SDS011;66928;52.086;5.240;2023-04-24T15:56:06;10.7;;;4.41;;
50651;SDS011;66928;52.086;5.240;2023-04-24T15:57:42;10.8;;;4.1;;
50651;SDS011;66928;52.086;5.240;2023-04-24T16:00:54;10.9;;;4.2;;
50651;SDS011;66928;52.086;5.240;2023-04-24T16:02:32;9.6;;;3.8;;
50651;SDS011;66928;52.086;5.240;2023-04-24T16:04:09;12.0;;;4.2;;
50651;SDS011;66928;52.086;5.240;2023-04-24T16:05:45;11.2;;;4.2;;
50651;SDS011;66928;52.086;5.240;2023-04-24T16:08:57;12.0;;;4.0;;
50651;SDS011;66928;52.086;5.240;2023-04-24T16:10:33;12.0;;;4.2;;
50651;SDS011;66928;52.086;5.240;2023-04-24T16:12:11;9.71;;;3.8;;
50651;SDS011;66928;52.086;5.240;2023-04-24T16:15:23;12.1;;;4.2;;
50651;SDS011;66928;52.086;5.240;2023-04-24T16:16:59;9.31;;;3.9;;
50651;SDS011;66928;52.086;5.240;2023-04-24T16:18:35;9.0;;;3.9;;
50651;SDS011;66928;52.086;5.240;2023-04-24T16:21:48;10.8;;;4.41;;
50651;SDS011;66928;52.086;5.240;2023-04-24T16:23:25;9.5;;;4.0;;
50651;SDS011;66928;52.086;5.240;2023-04-24T16:25:01;10.21;;;3.9;;
50651;SDS011;66928;52.086;5.240;2023-04-24T16:26:37;11.0;;;3.8;;
50651;SDS011;66928;52.086;5.240;2023-04-24T16:29:50;10.8;;;4.0;;
50651;SDS011;66928;52.086;5.240;2023-04-24T16:31:26;11.1;;;4.3;;
50651;SDS011;66928;52.086;5.240;2023-04-24T16:33:02;11.1;;;4.2;;
50651;SDS011;66928;52.086;5.240;2023-04-24T16:36:15;14.2;;;4.91;;
50651;SDS011;66928;52.086;5.240;2023-04-24T16:37:51;9.9;;;4.5;;
50651;SDS011;66928;52.086;5.240;2023-04-24T16:39:27;10.9;;;4.2;;
50651;SDS011;66928;52.086;5.240;2023-04-24T16:42:39;12.8;;;4.7;;
50651;SDS011;66928;52.086;5.240;2023-04-24T16:44:15;11.2;;;5.0;;
50651;SDS011;66928;52.086;5.240;2023-04-24T16:45:52;13.2;;;5.11;;
50651;SDS011;66928;52.086;5.240;2023-04-24T16:47:28;15.6;;;5.2;;
50651;SDS011;66928;52.086;5.240;2023-04-24T16:50:42;11.2;;;4.8;;
50651;SDS011;66928;52.086;5.240;2023-04-24T16:52:18;14.7;;;5.11;;
50651;SDS011;66928;52.086;5.240;2023-04-24T16:53:54;15.8;;;5.4;;
50651;SDS011;66928;52.086;5.240;2023-04-24T16:57:07;10.6;;;4.61;;
50651;SDS011;66928;52.086;5.240;2023-04-24T16:58:43;11.8;;;4.61;;
50651;SDS011;66928;52.086;5.240;2023-04-24T17:00:19;13.0;;;5.0;;
50651;SDS011;66928;52.086;5.240;2023-04-24T17:03:32;13.3;;;4.91;;
50651;SDS011;66928;52.086;5.240;2023-04-24T17:05:08;11.5;;;4.61;;
50651;SDS011;66928;52.086;5.240;2023-04-24T17:06:44;13.7;;;5.11;;
50651;SDS011;66928;52.086;5.240;2023-04-24T17:09:57;13.8;;;4.91;;
50651;SDS011;66928;52.086;5.240;2023-04-24T17:11:33;16.2;;;5.0;;
50651;SDS011;66928;52.086;5.240;2023-04-24T17:13:10;16.9;;;5.2;;
50651;SDS011;66928;52.086;5.240;2023-04-24T17:14:47;14.7;;;5.7;;
50651;SDS011;66928;52.086;5.240;2023-04-24T17:17:59;11.7;;;4.8;;
50651;SDS011;66928;52.086;5.240;2023-04-24T17:19:36;10.9;;;5.2;;
50651;SDS011;66928;52.086;5.240;2023-04-24T17:21:13;14.9;;;5.11;;
50651;SDS011;66928;52.086;5.240;2023-04-24T17:24:26;14.5;;;5.3;;
50651;SDS011;66928;52.086;5.240;2023-04-24T17:26:03;13.2;;;4.91;;
50651;SDS011;66928;52.086;5.240;2023-04-24T17:27:40;12.4;;;4.8;;
50651;SDS011;66928;52.086;5.240;2023-04-24T17:30:52;13.8;;;4.5;;
50651;SDS011;66928;52.086;5.240;2023-04-24T17:32:29;12.6;;;4.5;;
50651;SDS011;66928;52.086;5.240;2023-04-24T17:34:06;11.2;;;4.2;;
50651;SDS011;66928;52.086;5.240;2023-04-24T17:35:42;12.5;;;4.7;;
50651;SDS011;66928;52.086;5.240;2023-04-24T17:38:54;15.9;;;4.91;;
50651;SDS011;66928;52.086;5.240;2023-04-24T17:40:31;12.9;;;4.7;;
50651;SDS011;66928;52.086;5.240;2023-04-24T17:42:07;12.7;;;4.5;;
50651;SDS011;66928;52.086;5.240;2023-04-24T17:45:19;14.1;;;4.7;;
50651;SDS011;66928;52.086;5.240;2023-04-24T17:46:56;14.3;;;5.0;;
50651;SDS011;66928;52.086;5.240;2023-04-24T17:48:32;13.5;;;4.8;;
50651;SDS011;66928;52.086;5.240;2023-04-24T17:51:45;12.8;;;4.5;;
50651;SDS011;66928;52.086;5.240;2023-04-24T17:53:21;15.1;;;5.2;;
50651;SDS011;66928;52.086;5.240;2023-04-24T17:54:58;12.5;;;4.5;;
50651;SDS011;66928;52.086;5.240;2023-04-24T17:56:34;13.4;;;5.0;;
50651;SDS011;66928;52.086;5.240;2023-04-24T17:59:46;16.8;;;5.2;;
50651;SDS011;66928;52.086;5.240;2023-04-24T18:01:22;11.9;;;4.61;;
50651;SDS011;66928;52.086;5.240;2023-04-24T18:02:58;12.7;;;4.8;;
50651;SDS011;66928;52.086;5.240;2023-04-24T18:06:11;15.2;;;5.2;;